createdAt,value
2022-08-14T00:00:53.325Z,14.93
2022-08-14T00:05:59.986Z,18.77
2022-08-14T00:11:02.093Z,16.52
2022-08-14T00:16:08.328Z,15.88
2022-08-14T00:21:11.157Z,15.77
2022-08-14T00:26:21.671Z,16.15
2022-08-14T00:31:35.122Z,17.30
2022-08-14T00:36:49.186Z,17.13
2022-08-14T00:41:51.576Z,17.90
2022-08-14T00:46:54.149Z,15.00
2022-08-14T00:52:00.592Z,17.42
2022-08-14T00:57:02.801Z,17.88
2022-08-14T01:02:05.820Z,16.95
2022-08-14T01:07:11.582Z,18.42
2022-08-14T01:12:26.388Z,15.75
2022-08-14T01:17:52.207Z,19.17
2022-08-14T01:22:54.955Z,18.00
2022-08-14T01:27:58.041Z,16.38
2022-08-14T01:32:59.833Z,16.55
2022-08-14T01:38:01.624Z,17.00
2022-08-14T01:43:03.540Z,14.30
2022-08-14T01:48:05.305Z,15.23
2022-08-14T01:53:08.190Z,17.70
2022-08-14T01:58:19.781Z,16.08
2022-08-14T02:03:30.845Z,15.82
2022-08-14T02:08:34.669Z,16.40
2022-08-14T02:13:37.948Z,16.15
2022-08-14T02:18:39.961Z,16.00
2022-08-14T02:23:42.986Z,16.80
2022-08-14T02:28:57.423Z,17.85
2022-08-14T02:34:20.323Z,19.13
2022-08-14T02:39:24.384Z,17.70
2022-08-14T02:44:30.053Z,17.15
2022-08-14T02:49:33.965Z,19.40
2022-08-14T02:54:36.490Z,16.63
2022-08-14T02:59:39.305Z,17.83
2022-08-14T03:04:45.044Z,15.98
2022-08-14T03:10:25.588Z,17.38
2022-08-14T03:15:16.578Z,18.23
2022-08-14T03:20:22.556Z,17.65
2022-08-14T03:25:24.470Z,16.50
2022-08-14T03:30:37.213Z,17.63
2022-08-14T03:36:05.709Z,18.13
2022-08-14T03:41:04.045Z,19.10
2022-08-14T03:46:10.197Z,18.23
2022-08-14T03:51:28.816Z,17.83
2022-08-14T03:56:30.961Z,18.95
2022-08-14T04:01:39.233Z,16.73
2022-08-14T04:06:48.578Z,18.67
2022-08-14T04:11:50.780Z,19.45
2022-08-14T04:16:52.551Z,16.08
2022-08-14T04:22:02.142Z,19.70
2022-08-14T04:27:09.731Z,16.05
2022-08-14T04:32:57.639Z,16.92
2022-08-14T04:37:53.647Z,17.35
2022-08-14T04:43:17.424Z,17.65
2022-08-14T04:48:38.934Z,19.95
2022-08-14T04:53:50.232Z,18.08
2022-08-14T04:59:02.030Z,17.98
2022-08-14T05:04:04.611Z,18.77
2022-08-14T05:09:13.936Z,17.33
2022-08-14T05:14:45.334Z,17.48
2022-08-14T05:19:44.414Z,16.10
2022-08-14T05:25:00.703Z,18.13
2022-08-14T05:30:06.022Z,15.95
2022-08-14T05:35:11.520Z,14.93
2022-08-14T05:40:13.318Z,17.98
2022-08-14T05:45:17.163Z,16.85
2022-08-14T05:50:19.890Z,17.08
2022-08-14T05:55:23.295Z,16.58
2022-08-14T06:00:38.558Z,16.60
2022-08-14T06:05:42.127Z,17.85
2022-08-14T06:10:44.339Z,16.38
2022-08-14T06:15:47.578Z,16.35
2022-08-14T06:20:51.042Z,17.33
2022-08-14T06:25:53.459Z,15.43
2022-08-14T06:30:56.041Z,17.33
2022-08-14T06:35:58.275Z,16.23
2022-08-14T06:41:00.437Z,14.60
2022-08-14T06:46:03.212Z,18.92
2022-08-14T06:51:05.027Z,16.45
2022-08-14T06:56:07.504Z,13.88
2022-08-14T07:01:28.157Z,14.05
2022-08-14T07:06:45.522Z,14.82
2022-08-14T07:11:47.922Z,14.77
2022-08-14T07:16:49.623Z,16.45
2022-08-14T07:21:51.459Z,13.73
2022-08-14T07:26:53.665Z,13.75
2022-08-14T07:31:55.920Z,11.90
2022-08-14T07:37:00.660Z,13.57
2022-08-14T07:42:02.680Z,12.88
2022-08-14T07:47:05.299Z,12.48
2022-08-14T07:52:08.202Z,14.75
2022-08-14T07:57:12.652Z,11.75
2022-08-14T08:02:27.754Z,11.55
2022-08-14T08:07:31.411Z,12.65
2022-08-14T08:12:34.323Z,11.43
2022-08-14T08:17:39.095Z,11.80
2022-08-14T08:22:48.231Z,11.00
2022-08-14T08:28:31.402Z,11.27
2022-08-14T08:33:37.692Z,10.75
2022-08-14T08:39:18.226Z,10.65
2022-08-14T08:44:05.766Z,10.73
2022-08-14T08:49:19.310Z,10.65
2022-08-14T08:54:26.398Z,11.43
2022-08-14T08:59:34.373Z,10.57
2022-08-14T09:08:58.424Z,11.67
2022-08-14T09:14:01.713Z,11.60
2022-08-14T09:19:04.059Z,13.90
2022-08-14T09:24:27.985Z,12.73
2022-08-14T09:29:31.786Z,12.40
2022-08-14T09:35:10.985Z,12.25
2022-08-14T09:40:42.019Z,11.50
2022-08-14T09:45:53.608Z,10.20
2022-08-14T09:50:57.299Z,11.07
2022-08-14T09:56:00.187Z,11.68
2022-08-14T10:01:18.932Z,10.18
2022-08-14T10:06:31.295Z,10.15
2022-08-14T10:11:38.193Z,9.70
2022-08-14T10:16:48.094Z,10.90
2022-08-14T10:23:12.191Z,9.18
2022-08-14T10:27:38.073Z,9.20
2022-08-14T10:32:51.816Z,8.95
2022-08-14T10:37:54.003Z,8.70
2022-08-14T10:42:56.684Z,9.32
2022-08-14T10:48:09.643Z,7.70
2022-08-14T10:53:33.066Z,10.30
2022-08-14T10:58:35.021Z,7.75
2022-08-14T11:03:55.793Z,8.43
2022-08-14T11:08:58.765Z,13.68
2022-08-14T11:14:00.473Z,9.18
2022-08-14T11:19:03.683Z,8.05
2022-08-14T11:24:50.501Z,9.52
2022-08-14T11:29:30.939Z,8.07
2022-08-14T11:34:39.916Z,7.75
2022-08-14T11:39:42.111Z,8.05
2022-08-14T11:44:47.395Z,8.20
2022-08-14T11:49:51.973Z,8.38
2022-08-14T11:54:58.416Z,7.80
2022-08-14T12:00:03.357Z,8.27
2022-08-14T12:05:09.341Z,7.20
2022-08-14T12:10:27.145Z,7.68
2022-08-14T12:15:36.099Z,13.82
2022-08-14T12:20:45.742Z,7.30
2022-08-14T12:26:39.792Z,7.25
2022-08-14T12:31:27.269Z,8.25
2022-08-14T12:36:33.051Z,8.05
2022-08-14T12:41:37.170Z,7.45
2022-08-14T12:46:46.906Z,7.63
2022-08-14T12:52:00.192Z,7.68
2022-08-14T12:57:17.026Z,6.93
2022-08-14T13:02:26.028Z,7.30
2022-08-14T13:07:32.698Z,7.60
2022-08-14T13:12:51.254Z,7.32
2022-08-14T13:18:04.312Z,6.43
2022-08-14T13:23:09.393Z,6.65
2022-08-14T13:28:13.489Z,7.55
2022-08-14T13:33:36.604Z,7.60
2022-08-14T13:38:42.714Z,7.63
2022-08-14T13:43:49.262Z,7.60
2022-08-14T13:49:02.422Z,7.65
2022-08-14T13:54:10.593Z,11.10
2022-08-14T13:59:20.285Z,6.57
2022-08-14T14:04:31.118Z,7.13
2022-08-14T14:09:50.826Z,7.28
2022-08-14T14:14:54.451Z,7.75
2022-08-14T14:19:57.877Z,10.30
2022-08-14T14:24:59.719Z,7.88
2022-08-14T14:30:03.329Z,7.55
2022-08-14T14:35:06.832Z,6.90
2022-08-14T14:40:54.150Z,6.78
2022-08-14T14:45:38.213Z,6.50
2022-08-14T14:50:39.990Z,8.68
2022-08-14T14:56:51.212Z,6.85
2022-08-14T15:01:10.356Z,7.65
2022-08-14T15:06:12.827Z,7.00
2022-08-14T15:11:20.012Z,6.85
2022-08-14T15:16:22.538Z,8.15
2022-08-14T15:21:26.641Z,7.43
2022-08-14T15:26:31.682Z,6.63
2022-08-14T15:31:37.195Z,7.13
2022-08-14T15:36:40.954Z,7.85
2022-08-14T15:41:45.383Z,9.02
2022-08-14T15:46:47.154Z,8.32
2022-08-14T15:51:50.989Z,8.13
2022-08-14T15:57:01.215Z,7.40
2022-08-14T16:02:04.859Z,7.60
2022-08-14T16:07:11.530Z,8.40
2022-08-14T16:12:14.827Z,7.75
2022-08-14T16:17:17.291Z,8.15
2022-08-14T16:22:58.122Z,7.90
2022-08-14T16:27:43.231Z,8.27
2022-08-14T16:32:55.052Z,8.05
2022-08-14T16:37:58.438Z,7.93
2022-08-14T16:43:13.026Z,7.60
2022-08-14T16:48:57.368Z,7.88
2022-08-14T16:53:37.325Z,7.40
2022-08-14T16:58:40.478Z,7.78
2022-08-14T17:04:08.467Z,7.38
2022-08-14T17:09:48.806Z,7.35
2022-08-14T17:15:01.680Z,7.55
2022-08-14T17:20:39.581Z,9.50
2022-08-14T17:25:38.277Z,7.68
2022-08-14T17:30:58.935Z,9.30
2022-08-14T17:36:24.222Z,7.88
2022-08-14T17:41:36.269Z,7.68
2022-08-14T17:46:50.293Z,8.68
2022-08-14T17:52:07.665Z,9.50
2022-08-14T17:57:24.376Z,10.25
2022-08-14T18:02:31.091Z,9.18
2022-08-14T18:07:59.799Z,8.75
2022-08-14T18:12:57.008Z,9.32
2022-08-14T18:18:00.395Z,9.50
2022-08-14T18:23:04.030Z,9.23
2022-08-14T18:28:18.433Z,9.82
2022-08-14T18:33:35.638Z,9.07
2022-08-14T18:38:55.440Z,9.73
2022-08-14T18:44:02.191Z,9.25
2022-08-14T18:49:15.183Z,9.73
2022-08-14T18:54:30.023Z,14.45
2022-08-14T18:59:42.310Z,10.25
2022-08-14T19:04:44.838Z,10.30
2022-08-14T19:10:07.918Z,16.30
2022-08-14T19:15:10.874Z,9.80
2022-08-14T19:20:15.662Z,10.20
2022-08-14T19:25:54.982Z,10.25
2022-08-14T19:31:42.038Z,15.10
2022-08-14T19:37:05.950Z,10.88
2022-08-14T19:42:14.284Z,10.57
2022-08-14T19:47:40.963Z,10.93
2022-08-14T19:52:43.207Z,10.10
2022-08-14T19:57:58.874Z,11.43
2022-08-14T20:03:11.824Z,12.40
2022-08-14T20:11:00.152Z,10.60
2022-08-14T20:13:39.338Z,11.30
2022-08-14T20:18:51.623Z,12.20
2022-08-14T20:24:31.535Z,11.73
2022-08-14T20:29:38.087Z,10.38
2022-08-14T20:34:51.139Z,12.23
2022-08-14T20:39:54.419Z,11.05
2022-08-14T20:45:19.776Z,10.82
2022-08-14T20:50:28.279Z,10.63
2022-08-14T20:55:35.152Z,10.27
2022-08-14T21:00:52.219Z,10.73
2022-08-14T21:06:19.379Z,10.48
2022-08-14T21:11:23.871Z,11.63
2022-08-14T21:16:33.478Z,10.60
2022-08-14T21:21:42.416Z,11.75
2022-08-14T21:26:52.823Z,10.63
2022-08-14T21:32:20.643Z,11.70
2022-08-14T21:37:23.550Z,10.15
2022-08-14T21:42:27.932Z,11.77
2022-08-14T21:47:29.948Z,12.65
2022-08-14T21:52:49.327Z,10.55
2022-08-14T21:58:44.863Z,12.80
2022-08-14T22:03:19.548Z,13.93
2022-08-14T22:08:27.335Z,11.88
2022-08-14T22:13:32.353Z,11.50
2022-08-14T22:18:34.534Z,10.77
2022-08-14T22:23:38.643Z,11.38
2022-08-14T22:28:44.921Z,11.98
2022-08-14T22:33:50.012Z,11.48
2022-08-14T22:39:00.026Z,11.15
2022-08-14T22:44:10.885Z,11.88
2022-08-14T22:49:16.274Z,10.95
2022-08-14T22:54:52.803Z,11.68
2022-08-14T22:59:55.381Z,12.30
2022-08-14T23:04:58.038Z,11.57
2022-08-14T23:10:32.259Z,11.30
2022-08-14T23:15:24.630Z,12.35
2022-08-14T23:20:33.673Z,11.35
2022-08-14T23:25:58.267Z,11.77
2022-08-14T23:31:05.550Z,11.57
2022-08-14T23:36:28.537Z,11.77
2022-08-14T23:41:46.860Z,12.95
2022-08-14T23:46:56.893Z,11.00
2022-08-14T23:52:50.124Z,11.70
2022-08-14T23:57:24.047Z,11.88
